Time;durP1;ratioP1;P1;durP2;ratioP2;P2;SDS_P1;SDS_P2;PMS_P1;PMS_P2;Temp;Humidity;BMP_temperature;BMP_pressure;BME280_temperature;BME280_humidity;BME280_pressure;Samples;Min_cycle;Max_cycle;Signal;HPM_P1;HPM_P2
2022/01/22 00:00:00;;;;;;;3.78;2.95;;;;;;;5.76;65.90;102595.44;6182943;23;20020;-77
2022/01/22 00:02:44;;;;;;;2.70;2.55;;;;;;;5.83;66.30;102605.63;6183466;23;20315;-76
2022/01/22 00:05:23;;;;;;;2.08;1.98;;;;;;;5.87;66.41;102612.34;6182947;23;20013;-74
2022/01/22 00:07:50;;;;;;;3.22;1.88;;;;;;;5.81;66.61;102596.78;6184734;23;20367;-75
2022/01/22 00:10:22;;;;;;;2.33;1.73;;;;;;;5.82;65.48;102599.31;6183631;23;20032;-75
2022/01/22 00:15:41;;;;;;;3.80;2.28;;;;;;;5.99;65.58;102616.38;6196062;23;20097;-76
2022/01/22 00:18:09;;;;;;;2.75;2.55;;;;;;;5.90;65.78;102601.16;6185910;23;20297;-76
2022/01/22 00:20:50;;;;;;;1.90;1.80;;;;;;;5.90;65.02;102591.13;6185263;23;20001;-75
2022/01/22 00:23:26;;;;;;;;;;;;;;;;;;;;;
2022/01/22 00:25:56;;;;;;;2.47;2.28;;;;;;;5.98;64.92;102592.94;6183808;23;20369;-75
2022/01/22 00:28:31;;;;;;;1.80;1.70;;;;;;;6.03;65.62;102601.41;6182543;23;20439;-74
2022/01/22 00:30:57;;;;;;;2.05;1.90;;;;;;;5.98;65.42;102595.66;6135372;23;20699;-74
2022/01/22 00:33:32;;;;;;;1.88;1.67;;;;;;;5.96;65.03;102578.69;6184173;23;20454;-74
2022/01/22 00:36:08;;;;;;;1.87;1.77;;;;;;;5.90;64.78;102574.00;6181102;23;20330;-75
2022/01/22 00:38:33;;;;;;;2.38;2.22;;;;;;;5.86;64.11;102578.09;6182387;23;20076;-76
2022/01/22 00:41:01;;;;;;;2.47;2.10;;;;;;;5.94;64.80;102591.59;6185609;23;20095;-73
2022/01/22 00:43:27;;;;;;;1.98;1.88;;;;;;;6.04;64.90;102597.66;6158103;23;20013;-74
2022/01/22 00:45:55;;;;;;;2.00;1.90;;;;;;;6.00;65.01;102592.78;6183891;23;20313;-75
2022/01/22 00:48:21;;;;;;;2.92;2.17;;;;;;;6.04;64.79;102603.09;6191583;23;20001;-77
2022/01/22 00:50:56;;;;;;;2.05;1.95;;;;;;;5.94;64.33;102580.72;6200545;23;20008;-78
2022/01/22 00:53:36;;;;;;;;;;;;;;;;;;;;;
2022/01/22 00:59:08;;;;;;;1.60;1.50;;;;;;;6.07;64.20;102602.72;6164223;23;20331;-77
2022/01/22 01:05:09;;;;;;;2.20;1.60;;;;;;;6.13;64.08;102595.72;6165991;23;20024;-78
2022/01/22 01:07:40;;;;;;;2.50;2.30;;;;;;;5.96;64.22;102565.13;6185194;23;20036;-77
2022/01/22 01:10:32;;;;;;;;;;;;;;;;;;;;;
2022/01/22 01:13:24;;;;;;;;;;;;;;;;;;;;;
2022/01/22 01:32:52;;;;;;;1.45;1.38;;;;;;;6.06;64.63;102557.59;6183529;23;20059;-75
2022/01/22 01:35:26;;;;;;;2.95;1.83;;;;;;;6.16;64.67;102572.78;6185209;23;20427;-75
2022/01/22 01:37:53;;;;;;;;;;;;;;;6.15;64.78;102563.78;6185498;23;20001;-77
2022/01/22 01:40:23;;;;;;;1.65;1.55;;;;;;;6.08;64.05;102558.22;6184872;23;19912;-75
2022/01/22 01:45:27;;;;;;;1.60;1.50;;;;;;;6.09;64.70;102551.78;6187353;23;20305;-76
2022/01/22 01:47:59;;;;;;;3.15;2.90;;;;;;;6.05;63.85;102542.31;6184860;23;20013;-75
2022/01/22 01:50:37;;;;;;;6.55;2.80;;;;;;;6.11;64.82;102548.88;6184959;23;20001;-76
2022/01/22 01:53:15;;;;;;;2.38;2.28;;;;;;;5.99;63.84;102534.06;6186801;23;20001;-76
2022/01/22 01:57:24;;;;;;;3.28;2.45;;;;;;;5.94;64.27;102543.56;6186372;23;20013;-76
2022/01/22 01:58:37;;;;;;;2.47;2.38;;;;;;;5.86;64.79;102540.09;6188861;23;20024;-76
2022/01/22 02:01:05;;;;;;;3.08;2.88;;;;;;;5.96;64.73;102556.97;6191546;23;20467;-77
2022/01/22 02:03:35;;;;;;;2.63;2.53;;;;;;;5.86;64.00;102537.38;6186357;23;20005;-75
2022/01/22 02:06:00;;;;;;;2.75;2.55;;;;;;;5.97;64.70;102558.66;6136495;23;20335;-75
2022/01/22 02:08:26;;;;;;;2.00;1.90;;;;;;;5.98;63.84;102554.94;6181817;23;20013;-74
2022/01/22 02:10:59;;;;;;;2.15;1.52;;;;;;;5.99;64.31;102555.78;6184723;23;20008;-75
2022/01/22 02:24:51;;;;;;;3.17;2.97;;;;;;;6.02;64.61;102548.09;6190881;23;20384;-76
2022/01/22 02:27:17;;;;;;;2.88;1.90;;;;;;;6.06;64.50;102557.59;6190074;23;20009;-75
2022/01/22 02:29:43;;;;;;;2.55;2.25;;;;;;;6.00;64.80;102542.03;6191358;23;20004;-76
2022/01/22 02:34:43;;;;;;;3.72;2.70;;;;;;;6.02;65.06;102556.25;6191824;23;20104;-76
2022/01/22 02:37:13;;;;;;;3.25;2.95;;;;;;;5.99;64.11;102539.50;6185144;23;20009;-77
2022/01/22 02:39:45;;;;;;;2.85;2.65;;;;;;;6.01;64.33;102549.13;6184779;23;20043;-76
2022/01/22 02:42:14;;;;;;;2.53;2.25;;;;;;;5.98;64.57;102535.91;6180860;23;20120;-77
2022/01/22 02:44:45;;;;;;;3.08;2.88;;;;;;;6.04;64.47;102548.75;6183143;23;20013;-75
2022/01/22 02:47:13;;;;;;;3.15;2.88;;;;;;;6.03;64.66;102541.66;6157272;23;20074;-76
2022/01/22 02:50:08;;;;;;;3.38;3.17;;;;;;;5.92;63.89;102518.44;6183442;23;20079;-77
2022/01/22 02:52:33;;;;;;;3.72;3.53;;;;;;;6.02;63.66;102539.13;6176035;23;20005;-77
2022/01/22 02:55:00;;;;;;;3.63;3.33;;;;;;;6.03;64.72;102541.66;6158167;23;20032;-77
2022/01/22 02:57:26;;;;;;;2.10;1.95;;;;;;;6.02;63.72;102545.38;6156781;23;20045;-77
2022/01/22 02:59:55;;;;;;;3.40;3.20;;;;;;;6.06;64.12;102549.44;6183109;23;20029;-77
2022/01/22 03:02:28;;;;;;;3.60;3.40;;;;;;;5.96;64.16;102540.66;6183240;23;20051;-77
2022/01/22 03:04:55;;;;;;;3.17;3.03;;;;;;;5.93;64.26;102546.47;6178260;23;20347;-77
2022/01/22 03:07:24;;;;;;;3.90;3.70;;;;;;;5.96;64.23;102551.53;6134243;23;20009;-78
2022/01/22 03:09:54;;;;;;;3.60;3.40;;;;;;;5.87;64.23;102544.47;6185793;23;19997;-77
2022/01/22 03:20:43;;;;;;;3.83;3.63;;;;;;;5.80;64.71;102532.63;6195405;23;20009;-77
2022/01/22 03:28:28;;;;;;;3.58;3.38;;;;;;;5.77;64.91;102537.41;6184347;23;20347;-74
2022/01/22 03:30:54;;;;;;;3.60;3.28;;;;;;;5.73;64.43;102529.84;6159268;23;20008;-73
2022/01/22 03:33:28;;;;;;;4.60;4.30;;;;;;;5.64;63.80;102515.47;6158246;23;20068;-74
2022/01/22 03:35:56;;;;;;;3.58;3.38;;;;;;;5.64;63.97;102526.34;6182918;23;20088;-74
2022/01/22 03:38:23;;;;;;;4.28;3.88;;;;;;;5.64;64.70;102523.63;6182869;23;20076;-74
2022/01/22 03:40:49;;;;;;;6.10;4.20;;;;;;;5.73;64.72;102536.09;6181187;23;20001;-74
2022/01/22 03:43:15;;;;;;;3.40;3.20;;;;;;;5.68;64.42;102519.53;6182790;23;20005;-73
2022/01/22 03:45:46;;;;;;;3.67;3.47;;;;;;;5.67;64.19;102515.09;6184246;23;20335;-74
2022/01/22 03:48:12;;;;;;;3.40;3.28;;;;;;;5.73;64.81;102514.38;6183155;23;20005;-75
2022/01/22 03:50:45;;;;;;;3.50;3.30;;;;;;;5.73;64.82;102514.38;6184495;23;20012;-77
2022/01/22 03:53:10;;;;;;;3.35;3.25;;;;;;;5.64;64.86;102499.19;6157494;23;20009;-76
2022/01/22 03:55:49;;;;;;;3.60;3.40;;;;;;;5.73;64.83;102513.53;6133950;23;20032;-77
2022/01/22 03:58:14;;;;;;;3.78;3.58;;;;;;;5.72;64.89;102518.13;6161458;23;20455;-76
2022/01/22 04:00:42;;;;;;;2.67;2.55;;;;;;;5.74;64.79;102518.78;6182615;23;20064;-76
2022/01/22 04:03:44;;;;;;;3.17;2.97;;;;;;;5.75;64.85;102517.78;6183293;23;20622;-75
2022/01/22 04:08:38;;;;;;;4.03;3.72;;;;;;;5.75;64.17;102517.78;6193840;23;20335;-76
2022/01/22 04:11:17;;;;;;;4.15;3.40;;;;;;;5.72;64.51;102511.84;6183211;23;20486;-76
2022/01/22 04:13:44;;;;;;;4.50;4.30;;;;;;;5.66;65.00;102499.00;6184468;23;20039;-76
2022/01/22 04:16:14;;;;;;;3.78;3.58;;;;;;;5.63;64.63;102505.63;6184124;23;20012;-75
2022/01/22 04:27:07;;;;;;;4.05;3.45;;;;;;;5.62;64.30;102506.66;6189298;23;20039;-78
2022/01/22 04:29:32;;;;;;;3.80;3.55;;;;;;;5.66;64.34;102507.16;6188460;23;20007;-77
2022/01/22 04:32:07;;;;;;;3.55;3.17;;;;;;;5.68;64.72;102505.94;6188124;23;20039;-78
2022/01/22 04:34:33;;;;;;;4.03;3.83;;;;;;;5.70;64.29;102512.03;6188887;23;20009;-77
2022/01/22 04:36:59;;;;;;;3.92;3.67;;;;;;;5.69;64.42;102504.91;6186609;23;20004;-78
2022/01/22 04:39:26;;;;;;;2.72;2.63;;;;;;;5.71;64.97;102511.00;6187686;23;20033;-76
2022/01/22 04:41:56;;;;;;;3.80;3.50;;;;;;;5.69;64.16;102507.63;6189628;23;20029;-76
2022/01/22 04:44:30;;;;;;;3.20;2.97;;;;;;;5.68;65.03;102508.66;6157435;23;19997;-76
2022/01/22 04:57:18;;;;;;;3.40;3.10;;;;;;;5.75;64.40;102501.47;6182489;23;20772;-76
2022/01/22 04:59:51;;;;;;;3.67;3.38;;;;;;;5.73;64.21;102503.50;6182119;23;20005;-75
2022/01/22 05:02:19;;;;;;;3.35;3.25;;;;;;;5.65;64.31;102481.03;6158902;23;20431;-76
2022/01/22 05:04:48;;;;;;;5.68;3.88;;;;;;;5.72;64.47;102499.13;6183803;23;20013;-75
2022/01/22 05:07:14;;;;;;;4.05;3.85;;;;;;;5.73;64.66;102498.09;6182494;23;20001;-76
2022/01/22 05:09:43;;;;;;;8.13;3.60;;;;;;;5.72;64.79;102507.28;6184076;23;19997;-75
2022/01/22 05:12:11;;;;;;;3.65;3.35;;;;;;;5.65;63.80;102503.59;6184728;23;20075;-76
2022/01/22 05:14:37;;;;;;;3.53;3.33;;;;;;;5.65;64.16;102503.59;6134577;23;20075;-75
2022/01/22 05:17:08;;;;;;;3.20;3.10;;;;;;;5.69;64.64;102512.22;6183739;23;20012;-76
2022/01/22 05:19:45;;;;;;;2.90;2.78;;;;;;;5.68;64.03;102505.09;6182772;23;20001;-76
2022/01/22 05:22:39;;;;;;;3.85;3.28;;;;;;;5.80;64.41;102516.34;6182495;23;20431;-78
2022/01/22 05:25:13;;;;;;;3.63;3.42;;;;;;;5.70;64.78;102517.47;6184950;23;20033;-75
2022/01/22 05:27:59;;;;;;;3.35;3.15;;;;;;;5.72;64.42;102511.84;6184455;23;20013;-75
2022/01/22 05:30:49;;;;;;;3.15;2.72;;;;;;;5.66;64.80;102502.56;6183748;23;20428;-74
2022/01/22 05:38:47;;;;;;;3.08;1.80;;;;;;;5.84;64.31;102531.25;6184740;23;20015;-77
2022/01/22 05:41:22;;;;;;;1.58;1.50;;;;;;;5.89;64.42;102537.00;6184066;23;20088;-77
2022/01/22 05:43:55;;;;;;;2.42;2.00;;;;;;;5.87;64.55;102528.16;6182423;23;20419;-76
2022/01/22 05:46:20;;;;;;;4.45;1.80;;;;;;;5.93;64.17;102535.59;6158667;23;20071;-75
2022/01/22 05:48:46;;;;;;;2.40;2.20;;;;;;;5.91;64.70;102532.22;6182308;23;20395;-76
2022/01/22 05:51:14;;;;;;;2.40;2.30;;;;;;;5.92;64.81;102528.47;6157665;23;20017;-77
2022/01/22 06:01:53;;;;;;;1.70;1.60;;;;;;;5.96;64.22;102551.53;6182866;23;20071;-77
2022/01/22 06:04:19;;;;;;;1.27;1.17;;;;;;;5.94;64.49;102542.72;6184766;23;20004;-76
2022/01/22 06:06:44;;;;;;;1.65;1.55;;;;;;;5.99;63.92;102551.19;6157352;23;20096;-75
2022/01/22 06:09:10;;;;;;;1.83;1.73;;;;;;;6.03;64.71;102555.25;6183024;23;20330;-75
2022/01/22 06:11:52;;;;;;;1.88;1.77;;;;;;;6.05;64.77;102571.34;6193938;23;20005;-75
2022/01/22 06:14:18;;;;;;;1.55;1.45;;;;;;;6.03;64.51;102570.66;6196805;23;20004;-75
2022/01/22 06:16:44;;;;;;;1.15;1.05;;;;;;;6.05;64.36;102561.31;6190968;23;20039;-76
2022/01/22 06:19:10;;;;;;;3.17;1.50;;;;;;;6.09;64.89;102559.94;6183031;23;20444;-75
2022/01/22 06:21:35;;;;;;;1.90;1.80;;;;;;;6.16;63.67;102568.16;6185207;23;20005;-75
2022/01/22 06:24:01;;;;;;;1.75;1.60;;;;;;;6.15;64.57;102571.06;6182489;23;20005;-75
2022/01/22 06:26:26;;;;;;;1.52;1.42;;;;;;;6.19;64.60;102577.84;6185221;23;20424;-77
2022/01/22 06:28:58;;;;;;;0.80;0.80;;;;;;;6.17;64.45;102569.03;6156952;23;20084;-77
2022/01/22 06:31:24;;;;;;;0.80;0.80;;;;;;;6.16;64.13;102570.88;6156413;23;20455;-77
2022/01/22 06:33:57;;;;;;;1.20;1.10;;;;;;;6.14;63.69;102553.09;6183163;23;20005;-77
2022/01/22 06:36:25;;;;;;;0.88;0.88;;;;;;;6.22;64.56;102569.31;6158056;23;20005;-76
2022/01/22 06:39:11;;;;;;;1.00;1.00;;;;;;;6.21;64.11;102568.47;6183007;23;20071;-76
2022/01/22 06:41:44;;;;;;;0.75;0.75;;;;;;;6.26;64.31;102570.63;6184066;23;20005;-77
2022/01/22 06:44:18;;;;;;;0.73;0.73;;;;;;;6.23;64.43;102562.84;6183728;23;20009;-77
2022/01/22 06:46:46;;;;;;;0.38;0.38;;;;;;;6.27;64.57;102566.91;6182467;23;20016;-76
2022/01/22 06:49:21;;;;;;;0.70;0.70;;;;;;;6.22;63.99;102553.00;6186983;23;20008;-77
2022/01/22 06:51:47;;;;;;;0.90;0.90;;;;;;;6.19;63.59;102547.94;6183076;23;20071;-77
2022/01/22 06:54:14;;;;;;;0.63;0.63;;;;;;;6.23;63.97;102557.41;6184986;23;20036;-78
2022/01/22 06:56:43;;;;;;;0.57;0.57;;;;;;;6.25;64.37;102564.38;6184978;23;20080;-79
2022/01/22 06:59:13;;;;;;;0.50;0.45;;;;;;;6.27;64.21;102566.91;6184632;23;20020;-77
2022/01/22 07:01:48;;;;;;;0.30;0.30;;;;;;;6.16;64.45;102546.44;6184626;23;20013;-78
2022/01/22 07:04:16;;;;;;;0.40;0.40;;;;;;;6.18;63.46;102559.88;6185454;23;20005;-78
2022/01/22 07:06:50;;;;;;;0.50;0.50;;;;;;;6.01;64.16;102538.25;6183685;23;20004;-79
2022/01/22 07:09:15;;;;;;;0.85;0.85;;;;;;;5.90;63.41;102528.66;6189818;23;20001;-75
2022/01/22 07:11:58;;;;;;;1.17;1.15;;;;;;;5.85;64.16;102539.22;6190239;23;20001;-76
2022/01/22 07:14:26;;;;;;;1.45;1.35;;;;;;;5.95;63.71;102566.13;6146798;23;20012;-75
2022/01/22 07:16:54;;;;;;;1.10;1.10;;;;;;;5.89;64.04;102567.69;6196512;23;20081;-76
2022/01/22 07:19:21;;;;;;;0.68;0.68;;;;;;;5.90;64.80;102563.13;6197711;23;20001;-76
2022/01/22 07:21:55;;;;;;;0.95;0.95;;;;;;;5.91;65.17;102564.81;6197313;23;20028;-75
2022/01/22 07:24:26;;;;;;;0.70;0.70;;;;;;;5.91;64.68;102564.81;6199472;23;20008;-76
2022/01/22 07:26:58;;;;;;;1.33;1.25;;;;;;;5.83;64.50;102563.00;6196317;23;20012;-75
2022/01/22 07:29:23;;;;;;;1.10;1.10;;;;;;;5.79;64.70;102558.13;6193262;23;20364;-75
2022/01/22 07:32:17;;;;;;;1.10;1.10;;;;;;;5.87;64.83;102574.34;6186687;23;20015;-78
2022/01/22 07:34:34;;;;;;;0.90;0.90;;;;;;;5.74;65.07;102553.25;6184453;23;20005;-76
2022/01/22 07:37:17;;;;;;;;;;;;;;;;;;;;;
2022/01/22 07:39:43;;;;;;;1.77;1.45;;;;;;;5.77;64.24;102569.16;6188312;23;20083;-75
2022/01/22 07:42:09;;;;;;;1.33;1.33;;;;;;;5.88;65.08;102586.91;6203914;23;20009;-75
2022/01/22 07:44:34;;;;;;;1.58;1.48;;;;;;;5.93;64.42;102603.50;6207342;23;20229;-76
2022/01/22 07:47:08;;;;;;;1.77;1.67;;;;;;;5.80;64.57;102573.38;6175641;23;20013;-77
2022/01/22 07:49:36;;;;;;;1.98;1.88;;;;;;;5.86;64.24;102586.25;6193717;23;20011;-76
2022/01/22 07:52:17;;;;;;;;;;;;;;;;;;;;;
2022/01/22 07:54:46;;;;;;;2.60;2.40;;;;;;;5.77;64.21;102586.28;6200685;23;20027;-76
2022/01/22 08:01:07;;;;;;;;;;;;;;;;;;;;;
2022/01/22 08:03:33;;;;;;;3.42;3.22;;;;;;;5.47;65.46;102589.91;6122385;23;20109;-78
2022/01/22 08:06:13;;;;;;;4.05;3.85;;;;;;;5.33;64.75;102589.63;6179906;23;20005;-78
2022/01/22 08:09:05;;;;;;;4.22;3.90;;;;;;;5.30;65.62;102584.56;6189634;23;20419;-77
2022/01/22 08:11:30;;;;;;;5.97;3.05;;;;;;;5.14;64.80;102584.63;6184247;23;20067;-77
2022/01/22 08:14:08;;;;;;;3.38;3.15;;;;;;;5.18;65.71;102592.28;6184316;23;20072;-78
2022/01/22 08:16:34;;;;;;;4.20;2.75;;;;;;;5.06;65.52;102572.81;6177194;23;20005;-79
2022/01/22 08:19:02;;;;;;;3.13;2.65;;;;;;;5.10;65.17;102572.47;6184755;23;20079;-77
2022/01/22 08:21:30;;;;;;;4.63;4.22;;;;;;;5.19;65.74;102588.50;6180444;23;20339;-80
2022/01/22 08:24:13;;;;;;;3.63;3.30;;;;;;;5.23;65.42;102595.28;6183966;23;20013;-78
2022/01/22 08:29:58;;;;;;;5.72;5.07;;;;;;;5.27;66.29;102590.34;6184449;23;19997;-74
2022/01/22 08:32:56;;;;;;;4.82;4.55;;;;;;;5.17;65.81;102568.88;6181672;23;20365;-76
2022/01/22 08:38:14;;;;;;;7.75;4.85;;;;;;;5.22;65.66;102587.31;6181997;23;20358;-76
2022/01/22 08:40:49;;;;;;;;;;;;;;;;;;;;;
2022/01/22 08:43:25;;;;;;;;;;;;;;;;;;;;;
2022/01/22 08:46:03;;;;;;;;;;;;;;;;;;;;;
2022/01/22 08:48:31;;;;;;;4.80;4.50;;;;;;;5.25;66.36;102576.09;6186496;23;20079;-79
2022/01/22 08:50:57;;;;;;;4.40;4.10;;;;;;;5.50;66.90;102605.81;6187143;23;20005;-78
2022/01/22 08:53:22;;;;;;;5.18;4.72;;;;;;;5.52;66.16;102587.47;6185502;23;20005;-80
2022/01/22 08:55:50;;;;;;;4.80;4.53;;;;;;;5.60;66.46;102595.56;6184195;23;20016;-79
2022/01/22 08:58:16;;;;;;;4.95;4.55;;;;;;;5.61;65.90;102594.56;6159033;23;20025;-79
2022/01/22 09:00:51;;;;;;;;;;;;;;;;;;;;;
2022/01/22 09:03:26;;;;;;;5.65;5.05;;;;;;;5.66;66.43;102602.16;6184500;23;20080;-79
2022/01/22 09:05:55;;;;;;;6.15;5.03;;;;;;;5.57;65.99;102585.91;6182049;23;20063;-79
2022/01/22 09:08:23;;;;;;;4.60;4.20;;;;;;;5.60;66.28;102590.16;6183520;23;20364;-78
2022/01/22 09:10:50;;;;;;;4.35;3.97;;;;;;;5.71;66.65;102603.31;6159010;23;19997;-78
2022/01/22 09:13:22;;;;;;;4.75;4.40;;;;;;;5.65;66.05;102587.75;6184329;23;20012;-77
2022/01/22 09:15:48;;;;;;;5.05;4.85;;;;;;;5.73;66.13;102598.53;6181538;23;20012;-74
2022/01/22 09:18:14;;;;;;;7.47;4.88;;;;;;;5.72;66.47;102599.59;6181926;23;20017;-75
2022/01/22 09:20:55;;;;;;;13.25;4.45;;;;;;;5.66;66.43;102580.44;6179253;23;20088;-76
2022/01/22 09:23:20;;;;;;;4.60;4.30;;;;;;;5.68;65.87;102586.53;6184694;23;20052;-78
2022/01/22 09:25:46;;;;;;;3.60;3.40;;;;;;;5.73;66.83;102584.97;6184761;23;20317;-79
2022/01/22 09:28:14;;;;;;;4.18;3.30;;;;;;;5.90;66.03;102595.72;6185660;23;20012;-76
2022/01/22 09:30:40;;;;;;;3.67;3.47;;;;;;;5.95;66.66;102585.97;6182511;23;20076;-77
2022/01/22 09:33:07;;;;;;;3.90;3.58;;;;;;;6.05;66.36;102583.06;6178049;23;20007;-77
2022/01/22 09:35:36;;;;;;;3.53;3.22;;;;;;;6.19;66.36;102594.13;6182554;23;20028;-76
2022/01/22 09:38:17;;;;;;;3.83;3.58;;;;;;;6.26;65.65;102595.09;6177170;23;20013;-74
2022/01/22 09:40:45;;;;;;;3.45;3.25;;;;;;;6.37;66.15;102601.97;6180751;23;20056;-77
2022/01/22 09:43:22;;;;;;;2.85;2.63;;;;;;;6.40;64.94;102602.44;6157606;23;20005;-79
2022/01/22 09:45:50;;;;;;;2.95;2.75;;;;;;;6.52;66.05;102599.28;6184134;23;20011;-79
2022/01/22 09:48:15;;;;;;;3.45;3.22;;;;;;;6.60;65.80;102599.16;6183224;23;20044;-75
2022/01/22 09:50:43;;;;;;;3.45;3.25;;;;;;;6.52;65.08;102593.84;6182147;23;20009;-78
2022/01/22 09:57:35;;;;;;;;;;;;;;;;;;;;;
2022/01/22 10:04:29;;;;;;;;;;;;;;;;;;;;;
2022/01/22 10:29:00;;;;;;;;;;;;;;;;;;;;;
2022/01/22 10:35:09;;;;;;;2.78;2.58;;;;;;;7.84;63.28;102634.66;5790160;24;20015;-79
2022/01/22 10:45:29;;;;;;;3.30;3.10;;;;;;;8.05;61.80;102605.72;5878755;24;20089;-75
2022/01/22 10:49:09;;;;;;;;;;;;;;;;;;;;;
2022/01/22 10:52:03;;;;;;;;;;;;;;;;;;;;;
2022/01/22 11:06:14;;;;;;;;;;;;;;;;;;;;;
2022/01/22 11:44:15;;;;;;;2.70;2.50;;;;;;;8.94;59.53;102619.84;5928122;24;20029;-78
2022/01/22 11:47:28;;;;;;;;;;;;;;;;;;;;;
2022/01/22 12:08:50;;;;;;;;;;;;;;;;;;;;;
2022/01/22 12:15:21;;;;;;;3.00;2.90;;;;;;;9.39;57.61;102601.16;5931128;24;20444;-74
2022/01/22 12:21:41;;;;;;;;;;;;;;;;;;;;;
2022/01/22 12:27:42;;;;;;;4.45;4.05;;;;;;;9.13;56.88;102575.41;6094623;23;20014;-75
2022/01/22 12:30:09;;;;;;;6.50;3.25;;;;;;;9.20;57.08;102589.94;6203628;23;20008;-75
2022/01/22 12:32:51;;;;;;;4.82;3.53;;;;;;;9.35;56.73;102591.66;6200801;23;20031;-75
2022/01/22 12:36:23;;;;;;;;;;;;;;;;;;;;;
2022/01/22 12:39:08;;;;;;;4.10;3.70;;;;;;;9.21;56.29;102572.53;6036226;23;20018;-75
2022/01/22 12:41:48;;;;;;;3.92;3.63;;;;;;;9.32;56.73;102595.66;6070242;23;20880;-74
2022/01/22 12:44:33;;;;;;;3.58;3.38;;;;;;;9.36;56.55;102601.53;6187864;23;20008;-74
2022/01/22 12:47:05;;;;;;;3.83;3.63;;;;;;;9.37;56.73;102592.28;6186243;23;20137;-75
2022/01/22 12:50:06;;;;;;;5.60;4.47;;;;;;;9.55;56.09;102592.56;6184174;23;20003;-75
2022/01/22 12:52:45;;;;;;;;;;;;;;;;;;;;;
2022/01/22 12:55:22;;;;;;;3.30;3.10;;;;;;;9.81;56.38;102588.19;6187087;23;20088;-76
2022/01/22 12:57:48;;;;;;;3.83;3.63;;;;;;;9.83;56.16;102577.91;6185480;23;20059;-75
2022/01/22 13:00:17;;;;;;;3.85;3.55;;;;;;;9.88;55.61;102578.09;6186331;23;20009;-74
2022/01/22 13:02:54;;;;;;;3.38;3.17;;;;;;;9.93;55.98;102588.44;6192187;23;20001;-78
2022/01/22 13:05:32;;;;;;;3.63;3.42;;;;;;;10.00;56.13;102591.16;6190770;23;20020;-79
2022/01/22 13:08:01;;;;;;;3.95;3.65;;;;;;;10.00;55.75;102591.16;6191742;23;20004;-78
2022/01/22 13:10:37;;;;;;;7.20;4.00;;;;;;;9.94;55.52;102588.22;6191618;23;20009;-80
2022/01/22 13:13:05;;;;;;;4.25;3.78;;;;;;;9.76;54.85;102579.78;6188932;23;20396;-81
2022/01/22 13:15:33;;;;;;;3.97;3.40;;;;;;;9.70;55.72;102577.91;6186478;23;20298;-77
2022/01/22 13:18:03;;;;;;;3.92;3.30;;;;;;;9.63;55.39;102571.56;6185984;23;20016;-74
2022/01/22 13:20:52;;;;;;;;;;;;;;;;;;;;;
2022/01/22 13:23:29;;;;;;;3.92;3.63;;;;;;;9.52;55.38;102573.88;6191262;23;20036;-77
2022/01/22 13:25:56;;;;;;;3.38;3.17;;;;;;;9.48;55.60;102578.06;6165450;23;20048;-77
2022/01/22 13:28:35;;;;;;;3.22;3.03;;;;;;;9.48;55.72;102583.50;6167427;23;20101;-76
2022/01/22 13:31:10;;;;;;;4.78;3.72;;;;;;;9.37;55.39;102567.72;6188212;23;20302;-75
2022/01/22 13:36:22;;;;;;;3.63;3.42;;;;;;;9.32;55.63;102567.50;6202232;23;20029;-74
2022/01/22 13:50:07;;;;;;;;;;;;;;;;;;;;;
2022/01/22 13:56:22;;;;;;;;;;;;;;;;;;;;;
2022/01/22 13:59:34;;;;;;;4.65;2.50;;;;;;;8.56;55.69;102551.00;6193463;23;20061;-78
2022/01/22 14:05:33;;;;;;;2.20;2.10;;;;;;;8.80;55.84;102554.25;6190054;23;20028;-75
2022/01/22 14:08:34;;;;;;;2.03;1.92;;;;;;;8.77;55.96;102549.22;6189385;23;20011;-74
2022/01/22 14:11:17;;;;;;;2.63;2.08;;;;;;;8.72;55.89;102551.72;6103375;23;20443;-77
2022/01/22 14:14:12;;;;;;;;;;;;;;;;;;;;;
2022/01/22 14:16:54;;;;;;;4.07;1.98;;;;;;;8.72;56.08;102547.09;6190625;23;20032;-78
2022/01/22 14:20:05;;;;;;;1.70;1.60;;;;;;;8.72;56.09;102540.81;6187626;23;20005;-77
2022/01/22 14:22:54;;;;;;;2.05;1.67;;;;;;;8.78;56.07;102548.19;6175052;23;20005;-78
2022/01/22 14:25:23;;;;;;;2.30;2.20;;;;;;;8.66;56.17;102539.72;6188737;23;20009;-78
2022/01/22 14:28:15;;;;;;;2.03;1.77;;;;;;;8.55;56.05;102530.22;6187684;23;20001;-76
2022/01/22 14:31:32;;;;;;;3.38;1.80;;;;;;;8.70;56.14;102556.50;6188877;23;19997;-76
2022/01/22 14:34:06;;;;;;;2.42;2.33;;;;;;;8.44;56.61;102530.78;6186538;23;20005;-77
2022/01/22 14:37:21;;;;;;;;;;;;;;;;;;;;;
2022/01/22 14:46:11;;;;;;;1.60;1.50;;;;;;;8.59;57.19;102554.38;6180745;23;20020;-75
2022/01/22 14:51:46;;;;;;;9.57;2.57;;;;;;;8.24;57.08;102516.16;6161921;23;20028;-75
2022/01/22 14:54:42;;;;;;;;;;;;;;;;;;;;;
2022/01/22 14:57:18;;;;;;;2.70;2.50;;;;;;;8.34;57.19;102539.28;6184075;23;20400;-75
2022/01/22 15:00:07;;;;;;;;;;;;;;;;;;;;;
2022/01/22 15:02:45;;;;;;;4.28;3.97;;;;;;;8.09;57.00;102519.81;6189797;23;20032;-77
2022/01/22 15:05:31;;;;;;;;;;;;;;;;;;;;;
2022/01/22 15:08:19;;;;;;;4.05;2.83;;;;;;;8.14;57.77;102539.13;6190647;23;20117;-77
2022/01/22 15:10:59;;;;;;;3.53;3.22;;;;;;;8.07;57.69;102537.41;6190336;23;20008;-76
2022/01/22 15:14:03;;;;;;;3.47;3.28;;;;;;;7.89;57.23;102513.38;6166547;23;20071;-76
2022/01/22 15:19:32;;;;;;;;;;;;;;;7.88;56.85;102536.19;6157565;23;20009;-79
2022/01/22 15:22:02;;;;;;;;;;;;;;;7.82;57.50;102535.09;6190574;23;19904;-79
2022/01/22 15:28:35;;;;;;;2.70;2.60;;;;;;;7.78;57.73;102518.31;6170224;23;20339;-77
2022/01/22 15:31:16;;;;;;;;;;;;;;;;;;;;;
2022/01/22 15:37:50;;;;;;;;;;;;;;;;;;;;;
2022/01/22 15:40:45;;;;;;;3.35;3.15;;;;;;;7.70;58.10;102523.91;6182084;23;20084;-78
2022/01/22 15:44:42;;;;;;;;;;;;;;;;;;;;;
2022/01/22 15:46:46;;;;;;;3.05;2.85;;;;;;;7.59;58.33;102503.47;6073782;23;20089;-78
2022/01/22 15:49:17;;;;;;;2.17;2.08;;;;;;;7.61;58.65;102506.00;6076622;23;20010;-80
2022/01/22 15:55:08;;;;;;;3.13;3.00;;;;;;;7.51;57.99;102485.38;6190645;23;20093;-77
2022/01/22 15:58:02;;;;;;;;;;;;;;;;;;;;;
2022/01/22 16:00:36;;;;;;;2.78;2.58;;;;;;;7.63;58.54;102493.03;6161235;23;20052;-75
2022/01/22 16:13:46;;;;;;;3.70;2.70;;;;;;;7.34;58.02;102489.41;5957001;24;20385;-80
2022/01/22 16:17:17;;;;;;;2.22;2.13;;;;;;;7.28;58.20;102487.47;5959483;24;20036;-83
2022/01/22 16:24:36;;;;;;;;;;;;;;;;;;;;;
2022/01/22 16:31:49;;;;;;;;;;;;;;;;;;;;;
2022/01/22 16:34:42;;;;;;;3.65;3.40;;;;;;;7.19;59.15;102537.63;5758209;24;20409;-81
2022/01/22 16:37:59;;;;;;;4.22;3.80;;;;;;;6.93;59.47;102509.03;5765343;24;20011;-81
2022/01/22 17:10:18;;;;;;;3.83;3.53;;;;;;;6.96;58.89;102547.56;6282905;22;20018;-78
2022/01/22 17:16:22;;;;;;;;;;;;;;;;;;;;;
2022/01/22 17:19:20;;;;;;;3.00;2.80;;;;;;;6.89;59.55;102521.34;6239837;22;20031;-76
2022/01/22 17:29:08;;;;;;;;;;;;;;;;;;;;;
2022/01/22 17:39:10;;;;;;;4.40;4.10;;;;;;;6.91;59.35;102533.72;6278493;22;20346;-74
2022/01/22 17:41:45;;;;;;;4.15;3.88;;;;;;;6.92;59.11;102534.56;6252323;22;20015;-74
2022/01/22 17:44:11;;;;;;;;;;;;;;;6.93;59.02;102536.25;6252929;22;20299;-75
2022/01/22 17:50:37;;;;;;;3.13;2.90;;;;;;;6.96;58.94;102533.13;6157541;23;20388;-74
2022/01/22 17:53:41;;;;;;;;;;;;;;;;;;;;;
2022/01/22 18:03:49;;;;;;;;;;;;;;;;;;;;;
2022/01/22 18:18:09;;;;;;;;;;;;;;;;;;;;;
2022/01/22 19:35:05;;;;;;;3.60;3.40;;;;;;;6.76;60.64;102514.72;6192077;23;20016;-74
2022/01/22 19:37:55;;;;;;;3.63;3.42;;;;;;;6.63;60.56;102503.66;6220753;23;20020;-73
2022/01/22 19:40:43;;;;;;;;;;;;;;;;;;;;;
2022/01/22 19:43:19;;;;;;;;;;;;;;;;;;;;;
2022/01/22 19:45:49;;;;;;;4.88;4.47;;;;;;;6.55;59.64;102511.91;6221294;23;20040;-76
2022/01/22 19:59:19;;;;;;;2.28;2.17;;;;;;;6.68;60.04;102511.25;6064604;23;20054;-76
2022/01/22 20:02:08;;;;;;;;;;;;;;;;;;;;;
2022/01/22 20:05:14;;;;;;;2.95;2.40;;;;;;;6.55;59.86;102479.28;6199586;23;20058;-76
2022/01/22 20:18:30;;;;;;;;;;;;;;;;;;;;;
2022/01/22 21:04:22;;;;;;;1.17;1.08;;;;;;;6.71;60.14;102519.03;6160013;22;1500823;-73
2022/01/22 21:07:29;;;;;;;;;;;;;;;;;;;;;
2022/01/22 21:10:21;;;;;;;1.30;1.20;;;;;;;6.68;59.89;102498.47;6225679;23;20079;-74
2022/01/22 21:13:25;;;;;;;;;;;;;;;;;;;;;
2022/01/22 21:16:16;;;;;;;;;;;;;;;;;;;;;
2022/01/22 21:18:53;;;;;;;0.80;0.80;;;;;;;6.75;60.33;102507.56;6201964;23;20079;-74
2022/01/22 21:21:32;;;;;;;;;;;;;;;;;;;;;
2022/01/22 21:24:40;;;;;;;0.52;0.52;;;;;;;6.87;60.24;102520.69;6227646;23;20043;-75
2022/01/22 21:27:17;;;;;;;0.30;0.30;;;;;;;6.74;60.20;102511.31;6047196;23;19999;-74
2022/01/22 21:30:21;;;;;;;;;;;;;;;;;;;;;
2022/01/22 21:32:43;;;;;;;1.80;1.70;;;;;;;6.98;60.15;102547.41;6219500;23;20073;-73
2022/01/22 21:35:43;;;;;;;;;;;;;;;;;;;;;